sensor_id;sensor_type;location;lat;lon;timestamp;pressure;altitude;pressure_sealevel;temperature;humidity
47054;BME280;32811;52.382;5.270;2022-10-14T00:01:40;101584.59;;;9.05;100.00
47054;BME280;32811;52.382;5.270;2022-10-14T00:04:07;101587.19;;;9.05;100.00
47054;BME280;32811;52.382;5.270;2022-10-14T00:06:34;101586.31;;;9.04;100.00
47054;BME280;32811;52.382;5.270;2022-10-14T00:09:04;101584.50;;;9.02;100.00
47054;BME280;32811;52.382;5.270;2022-10-14T00:11:32;101572.47;;;9.01;100.00
47054;BME280;32811;52.382;5.270;2022-10-14T00:14:05;101573.38;;;9.03;100.00
47054;BME280;32811;52.382;5.270;2022-10-14T00:16:35;101577.63;;;9.01;100.00
47054;BME280;32811;52.382;5.270;2022-10-14T00:19:03;101578.34;;;8.93;100.00
47054;BME280;32811;52.382;5.270;2022-10-14T00:21:30;101565.38;;;8.90;100.00
47054;BME280;32811;52.382;5.270;2022-10-14T00:23:57;101575.66;;;8.90;100.00
47054;BME280;32811;52.382;5.270;2022-10-14T00:26:30;101570.56;;;8.92;100.00
47054;BME280;32811;52.382;5.270;2022-10-14T00:28:58;101572.34;;;8.94;100.00
47054;BME280;32811;52.382;5.270;2022-10-14T00:31:25;101569.66;;;8.90;100.00
47054;BME280;32811;52.382;5.270;2022-10-14T00:33:53;101568.75;;;8.86;100.00
47054;BME280;32811;52.382;5.270;2022-10-14T00:36:21;101570.53;;;8.90;100.00
47054;BME280;32811;52.382;5.270;2022-10-14T00:38:50;101567.88;;;8.87;100.00
47054;BME280;32811;52.382;5.270;2022-10-14T00:41:23;101572.13;;;8.85;100.00
47054;BME280;32811;52.382;5.270;2022-10-14T00:46:35;101573.00;;;8.86;100.00
47054;BME280;32811;52.382;5.270;2022-10-14T00:49:06;101567.94;;;8.89;100.00
47054;BME280;32811;52.382;5.270;2022-10-14T00:51:35;101558.34;;;8.83;100.00
47054;BME280;32811;52.382;5.270;2022-10-14T00:54:02;101560.00;;;8.81;100.00
47054;BME280;32811;52.382;5.270;2022-10-14T00:56:29;101552.34;;;8.83;100.00
47054;BME280;32811;52.382;5.270;2022-10-14T00:58:57;101539.38;;;8.78;100.00
47054;BME280;32811;52.382;5.270;2022-10-14T01:01:25;101550.47;;;8.76;100.00
47054;BME280;32811;52.382;5.270;2022-10-14T01:03:51;101543.50;;;8.71;100.00
47054;BME280;32811;52.382;5.270;2022-10-14T01:09:17;101523.56;;;8.63;100.00
47054;BME280;32811;52.382;5.270;2022-10-14T01:12:11;101524.44;;;8.63;100.00
47054;BME280;32811;52.382;5.270;2022-10-14T01:15:05;101521.84;;;8.63;100.00
47054;BME280;32811;52.382;5.270;2022-10-14T01:17:59;101513.22;;;8.61;100.00
47054;BME280;32811;52.382;5.270;2022-10-14T01:23:47;101515.63;;;8.54;100.00
47054;BME280;32811;52.382;5.270;2022-10-14T01:28:53;101511.34;;;8.54;100.00
47054;BME280;32811;52.382;5.270;2022-10-14T01:31:28;101506.16;;;8.52;100.00
47054;BME280;32811;52.382;5.270;2022-10-14T01:33:57;101511.41;;;8.56;100.00
47054;BME280;32811;52.382;5.270;2022-10-14T01:36:32;101516.59;;;8.59;100.00
47054;BME280;32811;52.382;5.270;2022-10-14T01:39:15;101519.00;;;8.51;100.00
47054;BME280;32811;52.382;5.270;2022-10-14T01:41:52;101511.19;;;8.46;100.00
47054;BME280;32811;52.382;5.270;2022-10-14T01:44:22;101503.47;;;8.46;100.00
47054;BME280;32811;52.382;5.270;2022-10-14T01:46:53;101499.94;;;8.43;100.00
47054;BME280;32811;52.382;5.270;2022-10-14T01:49:31;101500.75;;;8.40;100.00
47054;BME280;32811;52.382;5.270;2022-10-14T01:52:09;101498.03;;;8.36;100.00
47054;BME280;32811;52.382;5.270;2022-10-14T01:54:40;101498.94;;;8.38;100.00
47054;BME280;32811;52.382;5.270;2022-10-14T01:57:10;101500.59;;;8.36;100.00
47054;BME280;32811;52.382;5.270;2022-10-14T01:59:42;101500.63;;;8.37;100.00
47054;BME280;32811;52.382;5.270;2022-10-14T02:02:11;101487.59;;;8.29;100.00
47054;BME280;32811;52.382;5.270;2022-10-14T02:04:38;101498.94;;;8.39;100.00
47054;BME280;32811;52.382;5.270;2022-10-14T02:16:05;101518.22;;;8.54;100.00
47054;BME280;32811;52.382;5.270;2022-10-14T02:21:44;101512.84;;;8.44;100.00
47054;BME280;32811;52.382;5.270;2022-10-14T02:24:18;101509.44;;;8.45;100.00
47054;BME280;32811;52.382;5.270;2022-10-14T02:26:48;101516.38;;;8.49;100.00
47054;BME280;32811;52.382;5.270;2022-10-14T02:29:20;101512.09;;;8.48;100.00
47054;BME280;32811;52.382;5.270;2022-10-14T02:31:48;101509.53;;;8.50;100.00
47054;BME280;32811;52.382;5.270;2022-10-14T02:34:18;101521.59;;;8.52;100.00
47054;BME280;32811;52.382;5.270;2022-10-14T02:36:47;101506.97;;;8.50;100.00
47054;BME280;32811;52.382;5.270;2022-10-14T02:39:24;101507.75;;;8.47;100.00
47054;BME280;32811;52.382;5.270;2022-10-14T02:41:54;101495.00;;;8.52;100.00
47054;BME280;32811;52.382;5.270;2022-10-14T02:44:20;101488.88;;;8.47;100.00
47054;BME280;32811;52.382;5.270;2022-10-14T02:46:47;101481.19;;;8.47;100.00
47054;BME280;32811;52.382;5.270;2022-10-14T02:49:14;101476.06;;;8.48;100.00
47054;BME280;32811;52.382;5.270;2022-10-14T02:51:41;101459.59;;;8.40;100.00
47054;BME280;32811;52.382;5.270;2022-10-14T02:54:08;101465.75;;;8.47;100.00
47054;BME280;32811;52.382;5.270;2022-10-14T02:56:34;101458.88;;;8.47;100.00
47054;BME280;32811;52.382;5.270;2022-10-14T02:59:01;101445.06;;;8.44;100.00
47054;BME280;32811;52.382;5.270;2022-10-14T03:01:27;101445.72;;;8.37;100.00
47054;BME280;32811;52.382;5.270;2022-10-14T03:03:58;101464.06;;;8.49;100.00
47054;BME280;32811;52.382;5.270;2022-10-14T03:06:25;101466.66;;;8.49;100.00
47054;BME280;32811;52.382;5.270;2022-10-14T03:08:51;101462.31;;;8.46;100.00
47054;BME280;32811;52.382;5.270;2022-10-14T03:11:18;101468.31;;;8.47;100.00
47054;BME280;32811;52.382;5.270;2022-10-14T03:13:45;101464.06;;;8.49;100.00
47054;BME280;32811;52.382;5.270;2022-10-14T03:16:11;101462.41;;;8.51;100.00
47054;BME280;32811;52.382;5.270;2022-10-14T03:18:38;101457.28;;;8.52;100.00
47054;BME280;32811;52.382;5.270;2022-10-14T03:21:04;101449.47;;;8.48;100.00
47054;BME280;32811;52.382;5.270;2022-10-14T03:23:31;101454.78;;;8.56;100.00
47054;BME280;32811;52.382;5.270;2022-10-14T03:25:57;101446.22;;;8.57;100.00
47054;BME280;32811;52.382;5.270;2022-10-14T03:28:24;101451.47;;;8.60;100.00
47054;BME280;32811;52.382;5.270;2022-10-14T03:30:50;101435.91;;;8.55;100.00
47054;BME280;32811;52.382;5.270;2022-10-14T03:33:17;101436.03;;;8.60;100.00
47054;BME280;32811;52.382;5.270;2022-10-14T03:35:46;101447.22;;;8.62;100.00
47054;BME280;32811;52.382;5.270;2022-10-14T03:38:12;101444.69;;;8.65;100.00
47054;BME280;32811;52.382;5.270;2022-10-14T03:40:39;101442.19;;;8.68;100.00
47054;BME280;32811;52.382;5.270;2022-10-14T03:43:05;101426.69;;;8.65;100.00
47054;BME280;32811;52.382;5.270;2022-10-14T03:45:32;101430.22;;;8.70;100.00
47054;BME280;32811;52.382;5.270;2022-10-14T03:47:59;101425.16;;;8.73;100.00
47054;BME280;32811;52.382;5.270;2022-10-14T03:50:25;101419.22;;;8.77;100.00
47054;BME280;32811;52.382;5.270;2022-10-14T03:52:52;101407.16;;;8.75;100.00
47054;BME280;32811;52.382;5.270;2022-10-14T03:55:21;101413.28;;;8.81;100.00
47054;BME280;32811;52.382;5.270;2022-10-14T03:57:48;101406.50;;;8.85;100.00
47054;BME280;32811;52.382;5.270;2022-10-14T04:00:15;101403.09;;;8.84;100.00
47054;BME280;32811;52.382;5.270;2022-10-14T04:02:42;101402.28;;;8.88;100.00
47054;BME280;32811;52.382;5.270;2022-10-14T04:05:09;101393.75;;;8.89;100.00
47054;BME280;32811;52.382;5.270;2022-10-14T04:07:35;101398.97;;;8.94;100.00
47054;BME280;32811;52.382;5.270;2022-10-14T04:10:02;101402.44;;;8.96;100.00
47054;BME280;32811;52.382;5.270;2022-10-14T04:12:29;101394.03;;;9.05;100.00
47054;BME280;32811;52.382;5.270;2022-10-14T04:14:56;101388.81;;;9.02;100.00
47054;BME280;32811;52.382;5.270;2022-10-14T04:17:23;101397.44;;;9.04;100.00
47054;BME280;32811;52.382;5.270;2022-10-14T04:19:51;101395.78;;;9.06;100.00
47054;BME280;32811;52.382;5.270;2022-10-14T04:22:18;101385.50;;;9.07;100.00
47054;BME280;32811;52.382;5.270;2022-10-14T04:24:45;101393.28;;;9.10;100.00
47054;BME280;32811;52.382;5.270;2022-10-14T04:27:12;101389.03;;;9.11;100.00
47054;BME280;32811;52.382;5.270;2022-10-14T04:29:38;101387.31;;;9.11;100.00
47054;BME280;32811;52.382;5.270;2022-10-14T04:32:05;101390.88;;;9.18;100.00
47054;BME280;32811;52.382;5.270;2022-10-14T04:34:31;101384.81;;;9.16;100.00
47054;BME280;32811;52.382;5.270;2022-10-14T04:36:58;101377.91;;;9.15;100.00
47054;BME280;32811;52.382;5.270;2022-10-14T04:39:24;101377.19;;;9.21;100.00
47054;BME280;32811;52.382;5.270;2022-10-14T04:41:51;101370.31;;;9.21;100.00
47054;BME280;32811;52.382;5.270;2022-10-14T04:44:18;101366.03;;;9.22;100.00
47054;BME280;32811;52.382;5.270;2022-10-14T04:46:44;101366.09;;;9.26;100.00
47054;BME280;32811;52.382;5.270;2022-10-14T04:49:11;101361.84;;;9.28;100.00
47054;BME280;32811;52.382;5.270;2022-10-14T04:51:38;101364.47;;;9.30;100.00
47054;BME280;32811;52.382;5.270;2022-10-14T04:54:04;101352.44;;;9.29;100.00
47054;BME280;32811;52.382;5.270;2022-10-14T04:56:31;101344.78;;;9.33;100.00
47054;BME280;32811;52.382;5.270;2022-10-14T04:58:57;101338.81;;;9.36;100.00
47054;BME280;32811;52.382;5.270;2022-10-14T05:01:24;101338.81;;;9.36;100.00
47054;BME280;32811;52.382;5.270;2022-10-14T05:03:55;101346.63;;;9.41;100.00
47054;BME280;32811;52.382;5.270;2022-10-14T05:06:23;101339.78;;;9.43;100.00
47054;BME280;32811;52.382;5.270;2022-10-14T05:08:49;101337.22;;;9.43;100.00
47054;BME280;32811;52.382;5.270;2022-10-14T05:11:16;101336.44;;;9.47;100.00
47054;BME280;32811;52.382;5.270;2022-10-14T05:13:42;101326.00;;;9.41;100.00
47054;BME280;32811;52.382;5.270;2022-10-14T05:16:09;101324.44;;;9.49;100.00
47054;BME280;32811;52.382;5.270;2022-10-14T05:18:35;101331.34;;;9.53;100.00
47054;BME280;32811;52.382;5.270;2022-10-14T05:21:02;101327.94;;;9.54;100.00
47054;BME280;32811;52.382;5.270;2022-10-14T05:23:29;101320.22;;;9.54;100.00
47054;BME280;32811;52.382;5.270;2022-10-14T05:25:55;101319.44;;;9.58;100.00
47054;BME280;32811;52.382;5.270;2022-10-14T05:28:22;101310.03;;;9.60;100.00
47054;BME280;32811;52.382;5.270;2022-10-14T05:30:48;101303.97;;;9.58;100.00
47054;BME280;32811;52.382;5.270;2022-10-14T05:33:15;101310.03;;;9.62;100.00
47054;BME280;32811;52.382;5.270;2022-10-14T05:35:42;101293.72;;;9.63;100.00
47054;BME280;32811;52.382;5.270;2022-10-14T05:38:24;101300.63;;;9.65;100.00
47054;BME280;32811;52.382;5.270;2022-10-14T05:40:55;101293.81;;;9.67;100.00
47054;BME280;32811;52.382;5.270;2022-10-14T05:43:22;101292.13;;;9.69;100.00
47054;BME280;32811;52.382;5.270;2022-10-14T05:45:58;101286.97;;;9.69;100.00
47054;BME280;32811;52.382;5.270;2022-10-14T05:48:25;101288.75;;;9.73;100.00
47054;BME280;32811;52.382;5.270;2022-10-14T05:50:51;101293.03;;;9.74;100.00
47054;BME280;32811;52.382;5.270;2022-10-14T05:53:18;101287.88;;;9.74;100.00
47054;BME280;32811;52.382;5.270;2022-10-14T05:55:45;101277.56;;;9.74;100.00
47054;BME280;32811;52.382;5.270;2022-10-14T05:58:11;101287.97;;;9.81;100.00
47054;BME280;32811;52.382;5.270;2022-10-14T06:00:38;101284.69;;;9.89;100.00
47054;BME280;32811;52.382;5.270;2022-10-14T06:03:04;101280.31;;;9.85;100.00
47054;BME280;32811;52.382;5.270;2022-10-14T06:05:34;101277.78;;;9.87;100.00
47054;BME280;32811;52.382;5.270;2022-10-14T06:08:02;101279.53;;;9.91;100.00
47054;BME280;32811;52.382;5.270;2022-10-14T06:10:28;101278.63;;;9.89;100.00
47054;BME280;32811;52.382;5.270;2022-10-14T06:12:55;101275.25;;;9.93;100.00
47054;BME280;32811;52.382;5.270;2022-10-14T06:15:22;101276.16;;;9.95;100.00
47054;BME280;32811;52.382;5.270;2022-10-14T06:17:49;101271.06;;;10.00;100.00
47054;BME280;32811;52.382;5.270;2022-10-14T06:20:15;101270.19;;;9.99;100.00
47054;BME280;32811;52.382;5.270;2022-10-14T06:22:42;101264.16;;;9.98;100.00
47054;BME280;32811;52.382;5.270;2022-10-14T06:25:09;101264.19;;;10.02;100.00
47054;BME280;32811;52.382;5.270;2022-10-14T06:27:35;101264.25;;;10.06;100.00
47054;BME280;32811;52.382;5.270;2022-10-14T06:30:02;101263.44;;;10.07;100.00
47054;BME280;32811;52.382;5.270;2022-10-14T06:32:29;101261.75;;;10.09;100.00
47054;BME280;32811;52.382;5.270;2022-10-14T06:34:55;101251.47;;;10.15;100.00
47054;BME280;32811;52.382;5.270;2022-10-14T06:37:22;101252.31;;;10.13;100.00
47054;BME280;32811;52.382;5.270;2022-10-14T06:39:48;101257.56;;;10.19;100.00
47054;BME280;32811;52.382;5.270;2022-10-14T06:42:15;101245.50;;;10.19;100.00
47054;BME280;32811;52.382;5.270;2022-10-14T06:44:41;101248.97;;;10.20;100.00
47054;BME280;32811;52.382;5.270;2022-10-14T06:47:08;101248.16;;;10.24;100.00
47054;BME280;32811;52.382;5.270;2022-10-14T06:49:34;101243.91;;;10.28;100.00
47054;BME280;32811;52.382;5.270;2022-10-14T06:52:01;101234.41;;;10.27;100.00
47054;BME280;32811;52.382;5.270;2022-10-14T06:54:27;101236.28;;;10.35;100.00
47054;BME280;32811;52.382;5.270;2022-10-14T06:56:54;101233.66;;;10.31;100.00
47054;BME280;32811;52.382;5.270;2022-10-14T06:59:20;101235.41;;;10.32;100.00
47054;BME280;32811;52.382;5.270;2022-10-14T07:01:47;101238.84;;;10.35;100.00
47054;BME280;32811;52.382;5.270;2022-10-14T07:04:14;101231.13;;;10.34;100.00
47054;BME280;32811;52.382;5.270;2022-10-14T07:06:40;101230.22;;;10.33;100.00
47054;BME280;32811;52.382;5.270;2022-10-14T07:09:07;101232.06;;;10.41;100.00
47054;BME280;32811;52.382;5.270;2022-10-14T07:11:33;101230.38;;;10.43;100.00
47054;BME280;32811;52.382;5.270;2022-10-14T07:14:00;101214.88;;;10.44;100.00
47054;BME280;32811;52.382;5.270;2022-10-14T07:16:27;101216.66;;;10.48;100.00
47054;BME280;32811;52.382;5.270;2022-10-14T07:18:54;101227.03;;;10.54;100.00
47054;BME280;32811;52.382;5.270;2022-10-14T07:21:20;101226.22;;;10.57;100.00
47054;BME280;32811;52.382;5.270;2022-10-14T07:23:47;101222.81;;;10.63;100.00
47054;BME280;32811;52.382;5.270;2022-10-14T07:26:14;101218.53;;;10.65;100.00
47054;BME280;32811;52.382;5.270;2022-10-14T07:28:40;101213.38;;;10.66;100.00
47054;BME280;32811;52.382;5.270;2022-10-14T07:31:09;101222.03;;;10.71;100.00
47054;BME280;32811;52.382;5.270;2022-10-14T07:33:37;101204.00;;;10.73;100.00
47054;BME280;32811;52.382;5.270;2022-10-14T07:36:09;101207.47;;;10.76;100.00
47054;BME280;32811;52.382;5.270;2022-10-14T07:38:36;101218.72;;;10.83;100.00
47054;BME280;32811;52.382;5.270;2022-10-14T07:41:14;101211.03;;;10.91;100.00
47054;BME280;32811;52.382;5.270;2022-10-14T07:43:46;101212.75;;;10.90;100.00
47054;BME280;32811;52.382;5.270;2022-10-14T07:46:15;101213.63;;;10.94;100.00
47054;BME280;32811;52.382;5.270;2022-10-14T07:48:42;101205.88;;;10.94;100.00
47054;BME280;32811;52.382;5.270;2022-10-14T07:51:22;101208.53;;;11.00;100.00
47054;BME280;32811;52.382;5.270;2022-10-14T07:53:49;101204.22;;;11.00;100.00
47054;BME280;32811;52.382;5.270;2022-10-14T07:56:18;101214.63;;;11.07;100.00
47054;BME280;32811;52.382;5.270;2022-10-14T07:58:45;101208.56;;;11.05;100.00
47054;BME280;32811;52.382;5.270;2022-10-14T08:01:12;101199.97;;;11.07;100.00
47054;BME280;32811;52.382;5.270;2022-10-14T08:03:44;101202.63;;;11.13;100.00
47054;BME280;32811;52.382;5.270;2022-10-14T08:06:12;101204.34;;;11.13;100.00
47054;BME280;32811;52.382;5.270;2022-10-14T08:08:40;101192.31;;;11.18;100.00
47054;BME280;32811;52.382;5.270;2022-10-14T08:11:12;101200.94;;;11.18;100.00
47054;BME280;32811;52.382;5.270;2022-10-14T08:13:40;101198.34;;;11.18;100.00
47054;BME280;32811;52.382;5.270;2022-10-14T08:18:44;101193.22;;;11.25;100.00
47054;BME280;32811;52.382;5.270;2022-10-14T08:21:11;101187.22;;;11.29;100.00
47054;BME280;32811;52.382;5.270;2022-10-14T08:23:38;101191.59;;;11.34;100.00
47054;BME280;32811;52.382;5.270;2022-10-14T08:28:41;101196.81;;;11.45;100.00
47054;BME280;32811;52.382;5.270;2022-10-14T08:31:08;101194.25;;;11.50;100.00
47054;BME280;32811;52.382;5.270;2022-10-14T08:33:34;101190.88;;;11.57;100.00
47054;BME280;32811;52.382;5.270;2022-10-14T08:36:00;101191.72;;;11.60;100.00
47054;BME280;32811;52.382;5.270;2022-10-14T08:38:27;101191.78;;;11.68;100.00
47054;BME280;32811;52.382;5.270;2022-10-14T08:41:02;101195.25;;;11.70;100.00
47054;BME280;32811;52.382;5.270;2022-10-14T08:43:32;101184.91;;;11.76;100.00
47054;BME280;32811;52.382;5.270;2022-10-14T08:46:10;101184.13;;;11.83;100.00
47054;BME280;32811;52.382;5.270;2022-10-14T08:48:39;101191.94;;;11.93;100.00
47054;BME280;32811;52.382;5.270;2022-10-14T08:51:09;101187.66;;;12.01;100.00
47054;BME280;32811;52.382;5.270;2022-10-14T08:53:50;101182.47;;;12.01;100.00
47054;BME280;32811;52.382;5.270;2022-10-14T08:56:22;101178.19;;;12.03;100.00
47054;BME280;32811;52.382;5.270;2022-10-14T08:58:50;101178.19;;;12.01;100.00
47054;BME280;32811;52.382;5.270;2022-10-14T09:01:27;101183.38;;;12.06;100.00
47054;BME280;32811;52.382;5.270;2022-10-14T09:04:02;101168.69;;;12.05;100.00
47054;BME280;32811;52.382;5.270;2022-10-14T09:06:31;101172.19;;;12.13;100.00
47054;BME280;32811;52.382;5.270;2022-10-14T09:09:08;101173.94;;;12.17;100.00
47054;BME280;32811;52.382;5.270;2022-10-14T09:11:41;101174.81;;;12.19;100.00
47054;BME280;32811;52.382;5.270;2022-10-14T09:14:12;101169.63;;;12.25;100.00
47054;BME280;32811;52.382;5.270;2022-10-14T09:16:43;101159.25;;;12.25;100.00
47054;BME280;32811;52.382;5.270;2022-10-14T09:19:38;101156.69;;;12.32;100.00
47054;BME280;32811;52.382;5.270;2022-10-14T09:22:12;101160.16;;;12.38;100.00
47054;BME280;32811;52.382;5.270;2022-10-14T09:24:40;101159.31;;;12.41;100.00
47054;BME280;32811;52.382;5.270;2022-10-14T09:27:14;101150.69;;;12.46;100.00
47054;BME280;32811;52.382;5.270;2022-10-14T09:29:45;101153.28;;;12.51;100.00
47054;BME280;32811;52.382;5.270;2022-10-14T09:32:29;101156.75;;;12.62;100.00
47054;BME280;32811;52.382;5.270;2022-10-14T09:34:57;101155.03;;;12.55;100.00
47054;BME280;32811;52.382;5.270;2022-10-14T09:39:58;101151.59;;;12.69;100.00
47054;BME280;32811;52.382;5.270;2022-10-14T09:45:11;101142.97;;;12.85;100.00
47054;BME280;32811;52.382;5.270;2022-10-14T09:47:44;101143.81;;;12.87;100.00
47054;BME280;32811;52.382;5.270;2022-10-14T09:50:20;101144.69;;;12.95;100.00
47054;BME280;32811;52.382;5.270;2022-10-14T09:52:50;101140.38;;;12.96;100.00
47054;BME280;32811;52.382;5.270;2022-10-14T09:55:19;101141.22;;;12.95;100.00
47054;BME280;32811;52.382;5.270;2022-10-14T09:58:16;101138.63;;;13.05;100.00
47054;BME280;32811;52.382;5.270;2022-10-14T10:00:44;101136.03;;;13.08;100.00
47054;BME280;32811;52.382;5.270;2022-10-14T10:03:27;101134.31;;;13.09;100.00
47054;BME280;32811;52.382;5.270;2022-10-14T10:06:01;101127.41;;;13.02;100.00
47054;BME280;32811;52.382;5.270;2022-10-14T10:08:28;101121.34;;;13.04;100.00
47054;BME280;32811;52.382;5.270;2022-10-14T10:11:04;101131.69;;;13.06;100.00
47054;BME280;32811;52.382;5.270;2022-10-14T10:13:43;101128.25;;;13.07;100.00
47054;BME280;32811;52.382;5.270;2022-10-14T10:16:25;101128.28;;;13.04;100.00
47054;BME280;32811;52.382;5.270;2022-10-14T10:18:53;101119.63;;;13.05;100.00
47054;BME280;32811;52.382;5.270;2022-10-14T10:21:26;101127.41;;;13.06;100.00
47054;BME280;32811;52.382;5.270;2022-10-14T10:24:00;101121.34;;;13.04;100.00
47054;BME280;32811;52.382;5.270;2022-10-14T10:26:29;101125.69;;;13.08;100.00
47054;BME280;32811;52.382;5.270;2022-10-14T10:29:00;101117.91;;;13.07;100.00
47054;BME280;32811;52.382;5.270;2022-10-14T10:31:36;101117.88;;;13.12;100.00
47054;BME280;32811;52.382;5.270;2022-10-14T10:36:52;101110.94;;;13.21;100.00
47054;BME280;32811;52.382;5.270;2022-10-14T10:39:44;101110.94;;;13.26;100.00
47054;BME280;32811;52.382;5.270;2022-10-14T10:42:24;101110.09;;;13.27;100.00
47054;BME280;32811;52.382;5.270;2022-10-14T11:02:20;101091.06;;;13.42;100.00
47054;BME280;32811;52.382;5.270;2022-10-14T11:04:57;101077.22;;;13.47;100.00
47054;BME280;32811;52.382;5.270;2022-10-14T11:07:40;101071.13;;;13.56;100.00
47054;BME280;32811;52.382;5.270;2022-10-14T11:10:46;101069.38;;;13.61;100.00
47054;BME280;32811;52.382;5.270;2022-10-14T11:16:27;101068.47;;;13.64;100.00
47054;BME280;32811;52.382;5.270;2022-10-14T11:19:10;101062.44;;;13.62;100.00
47054;BME280;32811;52.382;5.270;2022-10-14T11:29:58;101049.47;;;13.65;100.00
47054;BME280;32811;52.382;5.270;2022-10-14T11:35:20;101043.38;;;13.74;100.00
47054;BME280;32811;52.382;5.270;2022-10-14T11:41:10;101025.19;;;13.78;100.00
47054;BME280;32811;52.382;5.270;2022-10-14T11:46:28;101024.31;;;13.81;100.00
47054;BME280;32811;52.382;5.270;2022-10-14T11:49:08;101032.94;;;13.83;100.00
47054;BME280;32811;52.382;5.270;2022-10-14T11:51:40;101028.59;;;13.82;100.00
47054;BME280;32811;52.382;5.270;2022-10-14T11:54:19;101019.13;;;13.81;100.00
47054;BME280;32811;52.382;5.270;2022-10-14T11:59:47;101001.84;;;13.80;100.00
47054;BME280;32811;52.382;5.270;2022-10-14T12:05:20;101000.06;;;13.82;100.00
47054;BME280;32811;52.382;5.270;2022-10-14T12:08:22;101003.53;;;13.85;100.00
47054;BME280;32811;52.382;5.270;2022-10-14T12:11:10;101001.81;;;13.81;100.00
47054;BME280;32811;52.382;5.270;2022-10-14T12:13:53;100999.25;;;13.78;100.00
47054;BME280;32811;52.382;5.270;2022-10-14T12:16:21;100999.22;;;13.84;100.00
47054;BME280;32811;52.382;5.270;2022-10-14T12:18:54;100994.00;;;13.87;100.00
47054;BME280;32811;52.382;5.270;2022-10-14T12:21:47;100987.13;;;13.80;100.00
47054;BME280;32811;52.382;5.270;2022-10-14T12:24:51;100982.78;;;13.81;100.00
47054;BME280;32811;52.382;5.270;2022-10-14T12:27:19;100974.13;;;13.83;100.00
47054;BME280;32811;52.382;5.270;2022-10-14T12:29:49;100976.69;;;13.89;100.00
47054;BME280;32811;52.382;5.270;2022-10-14T12:32:17;100976.66;;;13.96;100.00
47054;BME280;32811;52.382;5.270;2022-10-14T12:34:49;100966.25;;;13.97;100.00
47054;BME280;32811;52.382;5.270;2022-10-14T12:42:29;100961.84;;;14.04;100.00
47054;BME280;32811;52.382;5.270;2022-10-14T12:44:59;100962.75;;;14.01;100.00
47054;BME280;32811;52.382;5.270;2022-10-14T12:47:34;100960.16;;;14.03;100.00
47054;BME280;32811;52.382;5.270;2022-10-14T12:50:05;100959.25;;;14.07;100.00
47054;BME280;32811;52.382;5.270;2022-10-14T12:52:55;100956.72;;;14.01;100.00
47054;BME280;32811;52.382;5.270;2022-10-14T12:55:25;100947.19;;;14.00;100.00
47054;BME280;32811;52.382;5.270;2022-10-14T12:58:02;100947.19;;;14.00;100.00
47054;BME280;32811;52.382;5.270;2022-10-14T13:00:37;100948.91;;;14.01;100.00
47054;BME280;32811;52.382;5.270;2022-10-14T13:03:16;100953.22;;;14.03;100.00
47054;BME280;32811;52.382;5.270;2022-10-14T13:05:45;100952.38;;;14.01;100.00
47054;BME280;32811;52.382;5.270;2022-10-14T13:18:55;100950.41;;;14.26;100.00
47054;BME280;32811;52.382;5.270;2022-10-14T13:32:24;100948.56;;;14.41;100.00
47054;BME280;32811;52.382;5.270;2022-10-14T13:37:54;100936.44;;;14.43;100.00
47054;BME280;32811;52.382;5.270;2022-10-14T13:40:49;100933.03;;;14.35;100.00
47054;BME280;32811;52.382;5.270;2022-10-14T13:43:25;100939.13;;;14.33;100.00
47054;BME280;32811;52.382;5.270;2022-10-14T13:46:06;100931.25;;;14.40;100.00
47054;BME280;32811;52.382;5.270;2022-10-14T13:48:40;100933.84;;;14.43;100.00
47054;BME280;32811;52.382;5.270;2022-10-14T13:54:21;100934.59;;;14.51;100.00
47054;BME280;32811;52.382;5.270;2022-10-14T13:56:59;100935.50;;;14.48;100.00
47054;BME280;32811;52.382;5.270;2022-10-14T13:59:47;100934.59;;;14.51;100.00
47054;BME280;32811;52.382;5.270;2022-10-14T14:02:34;100927.75;;;14.47;100.00
47054;BME280;32811;52.382;5.270;2022-10-14T14:05:01;100929.50;;;14.45;100.00
47054;BME280;32811;52.382;5.270;2022-10-14T14:07:32;100920.00;;;14.42;100.00
47054;BME280;32811;52.382;5.270;2022-10-14T14:10:22;100918.25;;;14.41;100.00
47054;BME280;32811;52.382;5.270;2022-10-14T14:12:50;100918.34;;;14.33;100.00
47054;BME280;32811;52.382;5.270;2022-10-14T14:15:24;100910.59;;;14.29;100.00
47054;BME280;32811;52.382;5.270;2022-10-14T14:17:52;100908.81;;;14.36;100.00
47054;BME280;32811;52.382;5.270;2022-10-14T14:20:24;100883.84;;;14.21;100.00
47054;BME280;32811;52.382;5.270;2022-10-14T14:22:52;100896.84;;;14.21;100.00
47054;BME280;32811;52.382;5.270;2022-10-14T14:25:20;100909.75;;;14.27;100.00
47054;BME280;32811;52.382;5.270;2022-10-14T14:28:12;100904.53;;;14.28;100.00
47054;BME280;32811;52.382;5.270;2022-10-14T14:30:50;100881.31;;;14.16;100.00
47054;BME280;32811;52.382;5.270;2022-10-14T14:33:27;100879.56;;;14.17;100.00
47054;BME280;32811;52.382;5.270;2022-10-14T14:35:57;100901.97;;;14.27;100.00
47054;BME280;32811;52.382;5.270;2022-10-14T14:38:31;100906.28;;;14.28;100.00
47054;BME280;32811;52.382;5.270;2022-10-14T14:43:30;100911.47;;;14.29;100.00
47054;BME280;32811;52.382;5.270;2022-10-14T14:46:04;100903.69;;;14.26;100.00
47054;BME280;32811;52.382;5.270;2022-10-14T14:48:31;100910.63;;;14.27;100.00
47054;BME280;32811;52.382;5.270;2022-10-14T14:51:00;100922.72;;;14.28;100.00
47054;BME280;32811;52.382;5.270;2022-10-14T14:53:27;100913.22;;;14.27;100.00
47054;BME280;32811;52.382;5.270;2022-10-14T14:56:05;100903.78;;;14.19;100.00
47054;BME280;32811;52.382;5.270;2022-10-14T14:58:48;100907.22;;;14.19;100.00
47054;BME280;32811;52.382;5.270;2022-10-14T15:01:24;100902.09;;;14.13;100.00